Terminal Aerodrome Forecast
Issued by NWS

Home | Current Version | Previous Version | Text Only | Print | Product List | Glossary On
Versions: 1 2 3 4 5 6 7 8 9 10 11 12 13 14 15
000
FTUS42 KMLB 300529
TAFISM
TAF
KISM 300529Z 3006/3106 VRB03KT P6SM VCSH FEW060 BKN100 BKN130
     FM301400 VRB04KT P6SM SCT025 SCT050
     FM302100 VRB06KT P6SM VCTS SCT050CB BKN250
     FM310000 13005KT P6SM FEW030 BKN120
      AMD NOT SKED TIL 301100=

USA.gov is the U.S. government's official web portal to all federal, state and local government web resources and services.